Time;durP1;ratioP1;P1;durP2;ratioP2;P2;SDS_P1;SDS_P2;PMS_P1;PMS_P2;Temp;Humidity;BMP_temperature;BMP_pressure;BME280_temperature;BME280_humidity;BME280_pressure;Samples;Min_cycle;Max_cycle;Signal;HPM_P1;HPM_P2
2022/07/25 00:01:53;;;;;;;2.00;1.80;;;;;;;19.45;99.75;100820.84;21045543;28;20054;-76
2022/07/25 00:11:54;;;;;;;1.83;1.70;;;;;;;19.45;99.93;100796.53;21044838;28;20048;-77
2022/07/25 00:21:57;;;;;;;2.22;1.95;;;;;;;19.46;100.00;100789.28;21044089;28;20044;-77
2022/07/25 00:31:59;;;;;;;2.97;2.03;;;;;;;19.45;100.00;100772.25;21031660;28;20093;-77
2022/07/25 00:42:00;;;;;;;2.10;1.90;;;;;;;19.45;100.00;100760.56;21043080;28;20040;-78
2022/07/25 00:52:02;;;;;;;2.20;1.90;;;;;;;19.45;99.99;100749.78;21041539;28;20080;-77
2022/07/25 01:02:04;;;;;;;2.30;2.10;;;;;;;19.44;100.00;100738.09;21041708;28;20324;-76
2022/07/25 01:12:06;;;;;;;2.53;2.17;;;;;;;19.44;100.00;100732.72;21042400;28;20471;-76
2022/07/25 01:22:12;;;;;;;2.67;2.40;;;;;;;19.44;100.00;100719.22;21041043;28;20070;-76
2022/07/25 01:32:13;;;;;;;2.50;2.20;;;;;;;19.44;100.00;100691.38;21028193;28;20048;-76
2022/07/25 01:42:15;;;;;;;3.15;2.47;;;;;;;19.43;100.00;100682.41;21056230;28;20044;-76
2022/07/25 01:52:17;;;;;;;2.83;2.55;;;;;;;19.42;99.91;100667.22;21055926;28;20569;-76
2022/07/25 02:02:18;;;;;;;3.17;2.88;;;;;;;19.44;99.99;100661.69;21055188;28;20048;-77
2022/07/25 02:12:20;;;;;;;3.40;3.10;;;;;;;19.43;99.74;100644.63;21054437;28;20059;-76
2022/07/25 02:22:21;;;;;;;3.85;3.45;;;;;;;19.43;99.57;100625.72;21050073;28;20401;-77
2022/07/25 02:32:24;;;;;;;3.40;3.00;;;;;;;19.42;99.61;100615.94;21047469;28;20135;-77
2022/07/25 02:42:25;;;;;;;3.28;2.97;;;;;;;19.42;99.60;100605.13;21052162;28;20036;-77
2022/07/25 02:52:27;;;;;;;3.83;3.42;;;;;;;19.41;99.42;100590.81;21050748;28;20385;-77
2022/07/25 03:02:28;;;;;;;3.45;3.15;;;;;;;19.41;99.23;100571.03;21050401;28;20067;-77
2022/07/25 03:12:31;;;;;;;4.22;3.55;;;;;;;19.40;98.94;100563.94;21050649;28;20051;-76
2022/07/25 03:22:33;;;;;;;3.60;3.30;;;;;;;19.39;98.88;100546.91;21033099;28;20046;-77
2022/07/25 03:32:35;;;;;;;3.88;3.47;;;;;;;19.39;98.81;100544.22;21046448;28;20105;-77
2022/07/25 03:42:37;;;;;;;4.95;4.55;;;;;;;19.40;98.45;100529.72;21046444;28;20055;-75
2022/07/25 03:52:38;;;;;;;6.18;5.57;;;;;;;19.41;98.64;100517.06;21046832;28;20036;-75
2022/07/25 04:02:40;;;;;;;8.80;7.32;;;;;;;19.44;98.98;100505.13;21046177;28;20062;-75
2022/07/25 04:12:42;;;;;;;7.78;7.05;;;;;;;19.46;99.73;100498.56;21044483;28;20048;-75
2022/07/25 04:22:43;;;;;;;8.90;7.22;;;;;;;19.47;99.87;100488.59;20969819;28;20052;-75
2022/07/25 04:32:47;;;;;;;11.05;8.38;;;;;;;19.47;99.22;100484.06;20951410;28;20084;-75
2022/07/25 04:42:49;;;;;;;12.00;9.32;;;;;;;19.32;99.04;100458.63;20916105;28;20145;-76
2022/07/25 04:52:50;;;;;;;9.95;8.95;;;;;;;19.35;99.15;100453.75;20939879;28;20060;-76
2022/07/25 05:02:52;;;;;;;11.48;9.20;;;;;;;19.51;99.78;100474.63;20958305;28;20044;-75
2022/07/25 05:12:54;;;;;;;10.68;9.13;;;;;;;19.51;99.96;100469.25;20933570;28;20500;-75
2022/07/25 05:22:55;;;;;;;7.70;6.72;;;;;;;19.49;99.36;100456.88;20941533;28;20044;-76
2022/07/25 05:32:57;;;;;;;7.75;6.72;;;;;;;19.54;99.63;100444.63;20921325;28;20516;-75
2022/07/25 05:42:59;;;;;;;8.43;5.75;;;;;;;19.56;99.22;100439.91;20913093;28;26424;-75
2022/07/25 05:53:04;;;;;;;6.40;5.75;;;;;;;19.58;99.61;100433.50;20902219;28;20064;-75
2022/07/25 06:03:05;;;;;;;7.20;5.45;;;;;;;19.59;98.99;100427.94;20917916;28;20113;-74
2022/07/25 06:13:07;;;;;;;8.70;5.50;;;;;;;19.42;98.67;100399.97;20927031;28;20049;-74
2022/07/25 06:23:10;;;;;;;8.98;5.95;;;;;;;19.51;98.63;100414.38;20910424;28;20098;-74
2022/07/25 06:33:12;;;;;;;5.88;5.25;;;;;;;19.59;98.74;100429.78;20923192;28;20101;-74
2022/07/25 06:43:14;;;;;;;6.40;5.70;;;;;;;19.60;100.00;100428.78;20920752;28;20118;-74
2022/07/25 06:53:15;;;;;;;7.28;6.15;;;;;;;19.63;100.00;100428.47;20920619;28;20056;-74
2022/07/25 07:03:17;;;;;;;8.25;6.00;;;;;;;19.65;100.00;100431.84;20915860;28;20049;-75
2022/07/25 07:13:18;;;;;;;8.18;5.63;;;;;;;19.66;100.00;100425.44;20939790;28;20485;-75
2022/07/25 07:23:25;;;;;;;6.32;5.72;;;;;;;19.70;100.00;100406.06;20943248;28;20060;-74
2022/07/25 07:33:29;;;;;;;6.67;5.97;;;;;;;19.73;100.00;100429.19;20922692;28;20055;-75
2022/07/25 07:43:31;;;;;;;5.90;5.30;;;;;;;19.80;100.00;100414.03;20929991;28;20048;-74
2022/07/25 08:03:53;;;;;;;6.40;5.60;;;;;;;19.82;100.00;100420.13;20930395;28;20638;-75
2022/07/25 08:13:54;;;;;;;6.75;5.60;;;;;;;19.84;100.00;100401.06;20908814;28;20049;-75
2022/07/25 08:23:56;;;;;;;6.32;5.60;;;;;;;19.84;100.00;100414.56;20921376;28;20048;-75
2022/07/25 08:33:58;;;;;;;6.03;5.43;;;;;;;19.90;100.00;100429.31;20929403;28;20044;-75
2022/07/25 08:44:01;;;;;;;5.97;5.15;;;;;;;19.92;100.00;100432.72;20924372;28;20382;-75
2022/07/25 08:54:03;;;;;;;5.32;4.82;;;;;;;19.91;99.89;100434.56;20908161;28;20573;-74
2022/07/25 09:04:08;;;;;;;5.70;5.03;;;;;;;19.92;99.86;100422.75;20912262;28;20512;-75
2022/07/25 09:14:11;;;;;;;5.88;5.05;;;;;;;19.93;99.71;100410.09;20930423;28;20055;-75
2022/07/25 09:24:17;;;;;;;5.30;4.80;;;;;;;19.89;99.45;100422.22;20917045;28;20057;-75
2022/07/25 09:34:37;;;;;;;5.05;4.47;;;;;;;19.93;99.67;100443.34;20903723;28;20168;-76
2022/07/25 09:44:39;;;;;;;6.30;4.70;;;;;;;19.95;100.00;100440.50;20902756;28;20048;-76
2022/07/25 09:54:40;;;;;;;6.18;4.63;;;;;;;19.91;100.00;100444.53;20900140;28;20052;-76
2022/07/25 10:04:50;;;;;;;4.95;4.40;;;;;;;20.01;100.00;100474.97;20905956;28;20048;-76
2022/07/25 10:15:04;;;;;;;4.45;3.97;;;;;;;20.04;100.00;100468.38;20899570;28;20052;-77
2022/07/25 10:25:10;;;;;;;4.28;3.90;;;;;;;20.05;100.00;100465.53;20902441;28;20055;-77
2022/07/25 10:35:15;;;;;;;5.30;3.80;;;;;;;20.07;100.00;100460.81;20873826;28;20052;-75
2022/07/25 10:45:17;;;;;;;4.05;3.65;;;;;;;20.03;100.00;100470.25;20892873;28;20049;-75
2022/07/25 10:55:22;;;;;;;3.80;3.40;;;;;;;19.86;100.00;100462.00;20888849;28;21245;-75
2022/07/25 11:05:24;;;;;;;4.15;3.03;;;;;;;20.04;100.00;100485.47;20912252;28;20052;-75
2022/07/25 11:15:26;;;;;;;3.50;2.92;;;;;;;19.88;100.00;100486.19;20894155;28;20106;-75
2022/07/25 11:25:27;;;;;;;2.80;2.55;;;;;;;20.02;100.00;100514.50;20908542;28;20053;-75
2022/07/25 11:35:30;;;;;;;2.90;2.60;;;;;;;19.99;100.00;100512.94;20891480;28;20041;-77
2022/07/25 11:45:33;;;;;;;3.38;3.08;;;;;;;19.95;100.00;100525.09;20883584;28;20044;-76
2022/07/25 11:55:39;;;;;;;3.30;3.00;;;;;;;19.90;100.00;100526.56;20893371;28;20056;-75
2022/07/25 12:05:41;;;;;;;3.03;2.72;;;;;;;19.86;100.00;100543.06;20872166;28;20388;-76
2022/07/25 12:15:43;;;;;;;2.85;2.65;;;;;;;19.75;99.83;100528.97;20876785;28;20520;-76
2022/07/25 12:25:45;;;;;;;3.50;3.20;;;;;;;19.81;99.96;100553.50;20905226;28;20580;-76
2022/07/25 12:35:47;;;;;;;2.90;2.58;;;;;;;19.78;99.90;100551.09;20919762;28;20074;-76
2022/07/25 12:45:48;;;;;;;3.53;2.42;;;;;;;19.78;100.00;100558.38;20934780;28;20666;-76
2022/07/25 12:55:50;;;;;;;2.60;2.40;;;;;;;19.59;100.00;100537.81;20904565;28;20110;-76
2022/07/25 13:05:53;;;;;;;4.70;2.40;;;;;;;19.74;100.00;100578.59;20917201;28;20102;-76
2022/07/25 13:15:54;;;;;;;2.70;2.40;;;;;;;19.73;100.00;100571.50;20915264;28;20110;-76
2022/07/25 13:25:56;;;;;;;2.75;2.20;;;;;;;19.48;100.00;100536.19;20935445;28;20048;-76
2022/07/25 13:35:58;;;;;;;2.70;2.00;;;;;;;19.70;100.00;100594.25;20921281;28;20041;-76
2022/07/25 13:46:00;;;;;;;4.03;1.95;;;;;;;19.69;100.00;100608.75;20919177;28;20390;-76
2022/07/25 13:56:01;;;;;;;5.40;2.22;;;;;;;19.55;98.59;100599.34;20898400;28;20049;-77
2022/07/25 14:06:04;;;;;;;5.47;2.10;;;;;;;19.71;97.95;100626.53;20911055;28;20129;-77
2022/07/25 14:16:06;;;;;;;8.32;2.42;;;;;;;19.75;99.83;100618.94;20911178;28;20045;-77
2022/07/25 14:26:07;;;;;;;6.63;2.60;;;;;;;19.76;100.00;100615.25;20900169;28;20397;-78
2022/07/25 14:36:09;;;;;;;7.80;2.50;;;;;;;19.77;100.00;100618.81;20899335;28;20045;-77
2022/07/25 14:46:11;;;;;;;7.82;2.47;;;;;;;19.78;100.00;100615.94;20906021;28;20041;-77
2022/07/25 14:56:12;;;;;;;8.70;3.17;;;;;;;19.79;100.00;100609.53;20888689;28;20449;-77
2022/07/25 15:06:16;;;;;;;9.45;3.03;;;;;;;19.73;100.00;100593.94;20896308;28;20127;-77
2022/07/25 15:16:17;;;;;;;7.47;2.70;;;;;;;19.56;100.00;100556.00;20897073;28;20060;-76
2022/07/25 15:26:19;;;;;;;6.57;2.47;;;;;;;19.83;99.73;100602.81;20900653;28;20049;-76
2022/07/25 15:36:21;;;;;;;6.38;2.22;;;;;;;19.85;97.81;100606.19;20882804;28;20041;-78
2022/07/25 15:46:29;;;;;;;7.35;2.63;;;;;;;19.65;95.76;100589.31;20889944;28;20045;-77
2022/07/25 15:56:31;;;;;;;5.25;2.90;;;;;;;19.84;94.32;100630.69;20886616;28;20447;-77
2022/07/25 16:06:33;;;;;;;7.72;2.53;;;;;;;19.83;93.41;100627.13;20878538;28;20095;-77
2022/07/25 16:16:35;;;;;;;5.90;2.28;;;;;;;19.83;92.73;100639.78;20882583;28;20056;-77
2022/07/25 16:26:37;;;;;;;9.70;2.70;;;;;;;19.81;91.73;100639.09;20878479;28;20110;-77
2022/07/25 16:36:38;;;;;;;8.55;2.42;;;;;;;19.28;90.36;100555.25;20887563;28;20055;-77
2022/07/25 16:46:40;;;;;;;8.25;2.00;;;;;;;19.81;90.62;100645.31;20877332;28;20405;-77
2022/07/25 16:56:42;;;;;;;9.05;2.38;;;;;;;19.56;90.53;100606.44;20882081;28;20524;-76
2022/07/25 17:06:44;;;;;;;6.55;2.10;;;;;;;19.77;88.27;100657.44;20874795;28;20056;-77
2022/07/25 17:16:45;;;;;;;4.53;1.48;;;;;;;19.72;86.19;100657.06;20879600;28;20059;-77
2022/07/25 17:26:47;;;;;;;3.38;1.50;;;;;;;19.74;86.56;100655.06;20870663;28;20106;-79
2022/07/25 17:36:49;;;;;;;5.05;1.67;;;;;;;19.78;87.37;100667.25;20868155;28;20131;-77
2022/07/25 17:46:54;;;;;;;4.53;1.45;;;;;;;19.75;86.02;100689.16;20872974;28;20052;-77
2022/07/25 17:56:56;;;;;;;5.15;1.85;;;;;;;19.68;85.99;100693.50;20913061;28;20532;-78
2022/07/25 18:06:58;;;;;;;5.60;1.48;;;;;;;19.70;85.73;100694.19;20895676;28;20051;-76
2022/07/25 18:16:59;;;;;;;2.92;1.00;;;;;;;19.70;86.01;100705.00;20927776;28;20373;-76
2022/07/25 18:27:01;;;;;;;5.03;1.42;;;;;;;19.46;86.81;100668.66;20918993;28;20057;-75
2022/07/25 18:37:04;;;;;;;2.85;1.13;;;;;;;19.69;89.08;100703.28;20916417;28;20052;-76
2022/07/25 18:47:06;;;;;;;4.55;1.60;;;;;;;19.68;90.05;100699.75;20937028;28;20084;-76
2022/07/25 18:57:07;;;;;;;3.30;1.35;;;;;;;19.68;90.29;100701.59;20944652;28;20041;-75
2022/07/25 19:07:09;;;;;;;2.60;1.38;;;;;;;19.67;90.37;100713.41;21025067;28;20036;-75
2022/07/25 19:17:10;;;;;;;4.82;1.40;;;;;;;19.59;90.47;100707.91;21048373;28;20040;-75
2022/07/25 19:27:12;;;;;;;1.85;0.90;;;;;;;19.33;90.52;100666.31;21049057;28;20475;-75
2022/07/25 19:37:14;;;;;;;2.53;1.42;;;;;;;19.63;90.69;100723.66;21047885;28;20546;-77
2022/07/25 19:47:15;;;;;;;3.80;1.30;;;;;;;19.62;90.81;100735.44;21048450;28;20052;-74
2022/07/25 19:57:17;;;;;;;3.47;1.20;;;;;;;19.11;90.83;100656.78;21037555;28;20044;-75
2022/07/25 20:07:19;;;;;;;2.25;1.17;;;;;;;19.35;91.19;100712.88;21039589;28;20101;-75
2022/07/25 20:17:22;;;;;;;2.58;1.25;;;;;;;19.60;91.37;100755.53;21045968;28;20066;-75
2022/07/25 20:27:23;;;;;;;3.03;1.10;;;;;;;19.61;91.39;100749.13;21044405;28;20075;-75
2022/07/25 20:37:25;;;;;;;3.30;1.35;;;;;;;19.49;91.67;100737.66;21041991;28;20542;-75
2022/07/25 20:47:26;;;;;;;1.95;1.23;;;;;;;19.57;91.96;100753.97;21043841;28;20056;-75
2022/07/25 20:57:28;;;;;;;2.13;1.08;;;;;;;19.58;92.08;100765.63;21020354;28;20044;-75
2022/07/25 21:07:29;;;;;;;3.55;1.30;;;;;;;19.51;92.30;100765.38;21042224;28;20044;-75
2022/07/25 21:17:31;;;;;;;1.83;0.95;;;;;;;19.49;92.47;100765.53;21038936;28;20097;-75
2022/07/25 21:27:33;;;;;;;3.45;1.30;;;;;;;19.43;92.79;100758.00;21038250;28;20070;-75
2022/07/25 21:37:35;;;;;;;3.60;1.42;;;;;;;19.36;92.87;100746.13;21027362;28;20109;-76
2022/07/25 21:47:37;;;;;;;3.20;1.17;;;;;;;19.40;93.10;100769.97;20959838;28;20139;-75
2022/07/25 21:57:38;;;;;;;2.55;0.80;;;;;;;19.54;93.38;100798.34;21000656;28;20069;-75
2022/07/25 22:07:40;;;;;;;2.58;1.08;;;;;;;19.54;93.57;100797.47;21054662;28;20052;-75
2022/07/25 22:17:43;;;;;;;2.53;1.35;;;;;;;19.53;93.82;100791.22;21055373;28;20048;-75
2022/07/25 22:27:50;;;;;;;2.78;1.10;;;;;;;19.53;93.79;100801.16;21053205;28;20048;-75
2022/07/25 22:37:51;;;;;;;3.20;1.40;;;;;;;19.52;93.96;100805.72;21053460;28;20108;-75
2022/07/25 22:47:53;;;;;;;1.95;1.10;;;;;;;19.53;94.29;100809.25;21052513;28;20051;-75
2022/07/25 22:57:54;;;;;;;2.90;0.98;;;;;;;19.53;94.44;100817.38;21032485;28;20379;-75
2022/07/25 23:07:56;;;;;;;2.50;1.15;;;;;;;19.50;94.43;100815.84;21051079;28;20048;-75
2022/07/25 23:17:58;;;;;;;3.10;1.17;;;;;;;19.50;94.64;100821.22;21050335;28;20051;-75
2022/07/25 23:27:59;;;;;;;1.83;0.90;;;;;;;19.44;94.75;100816.41;21049287;28;20386;-75
2022/07/25 23:38:01;;;;;;;2.33;1.40;;;;;;;19.39;94.97;100806.06;21047038;28;20097;-75
2022/07/25 23:48:04;;;;;;;2.53;1.00;;;;;;;19.49;95.22;100827.63;21047558;28;20046;-75
2022/07/25 23:58:05;;;;;;;2.63;1.08;;;;;;;19.48;95.29;100831.34;21037537;28;20058;-75
